sensor_id;sensor_type;location;lat;lon;timestamp;temperature;humidity
13328;DHT22;6733;51.044;3.746;2023-04-25T00:02:05;10.50;99.90
13328;DHT22;6733;51.044;3.746;2023-04-25T00:04:32;10.40;99.90
13328;DHT22;6733;51.044;3.746;2023-04-25T00:06:59;10.40;99.90
13328;DHT22;6733;51.044;3.746;2023-04-25T00:09:29;10.40;99.90
13328;DHT22;6733;51.044;3.746;2023-04-25T00:11:55;10.40;99.90
13328;DHT22;6733;51.044;3.746;2023-04-25T00:14:21;10.40;99.90
13328;DHT22;6733;51.044;3.746;2023-04-25T00:16:48;10.40;99.90
13328;DHT22;6733;51.044;3.746;2023-04-25T00:19:17;10.40;99.90
13328;DHT22;6733;51.044;3.746;2023-04-25T00:21:43;10.40;99.90
13328;DHT22;6733;51.044;3.746;2023-04-25T00:24:12;10.40;99.90
13328;DHT22;6733;51.044;3.746;2023-04-25T00:26:38;10.50;99.90
13328;DHT22;6733;51.044;3.746;2023-04-25T00:29:04;10.50;99.90
13328;DHT22;6733;51.044;3.746;2023-04-25T00:31:31;10.50;99.90
13328;DHT22;6733;51.044;3.746;2023-04-25T00:33:57;10.50;99.90
13328;DHT22;6733;51.044;3.746;2023-04-25T00:36:23;10.40;99.90
13328;DHT22;6733;51.044;3.746;2023-04-25T00:38:49;10.50;99.90
13328;DHT22;6733;51.044;3.746;2023-04-25T00:41:16;10.40;99.90
13328;DHT22;6733;51.044;3.746;2023-04-25T00:43:42;10.40;99.90
13328;DHT22;6733;51.044;3.746;2023-04-25T00:46:10;10.50;99.90
13328;DHT22;6733;51.044;3.746;2023-04-25T00:48:36;10.40;99.90
13328;DHT22;6733;51.044;3.746;2023-04-25T00:51:02;10.40;99.90
13328;DHT22;6733;51.044;3.746;2023-04-25T00:53:30;10.40;99.90
13328;DHT22;6733;51.044;3.746;2023-04-25T00:55:58;10.40;99.90
13328;DHT22;6733;51.044;3.746;2023-04-25T00:58:24;10.40;99.90
13328;DHT22;6733;51.044;3.746;2023-04-25T01:00:51;10.40;99.90
13328;DHT22;6733;51.044;3.746;2023-04-25T01:03:18;10.40;99.90
13328;DHT22;6733;51.044;3.746;2023-04-25T01:05:48;10.40;99.90
13328;DHT22;6733;51.044;3.746;2023-04-25T01:08:14;10.40;99.90
13328;DHT22;6733;51.044;3.746;2023-04-25T01:10:41;10.40;99.90
13328;DHT22;6733;51.044;3.746;2023-04-25T01:13:07;10.40;99.90
13328;DHT22;6733;51.044;3.746;2023-04-25T01:15:33;10.40;99.90
13328;DHT22;6733;51.044;3.746;2023-04-25T01:18:01;10.50;99.90
13328;DHT22;6733;51.044;3.746;2023-04-25T01:20:28;10.40;99.90
13328;DHT22;6733;51.044;3.746;2023-04-25T01:22:55;10.30;99.90
13328;DHT22;6733;51.044;3.746;2023-04-25T01:25:22;10.40;99.90
13328;DHT22;6733;51.044;3.746;2023-04-25T01:27:48;10.30;99.90
13328;DHT22;6733;51.044;3.746;2023-04-25T01:30:14;10.30;99.90
13328;DHT22;6733;51.044;3.746;2023-04-25T01:32:41;10.30;99.90
13328;DHT22;6733;51.044;3.746;2023-04-25T01:35:10;10.20;99.90
13328;DHT22;6733;51.044;3.746;2023-04-25T01:37:43;10.20;99.90
13328;DHT22;6733;51.044;3.746;2023-04-25T01:40:10;10.10;99.90
13328;DHT22;6733;51.044;3.746;2023-04-25T01:42:42;10.10;99.90
13328;DHT22;6733;51.044;3.746;2023-04-25T01:45:10;10.10;99.90
13328;DHT22;6733;51.044;3.746;2023-04-25T01:47:37;10.00;99.90
13328;DHT22;6733;51.044;3.746;2023-04-25T01:50:06;10.00;99.90
13328;DHT22;6733;51.044;3.746;2023-04-25T01:52:32;10.00;99.90
13328;DHT22;6733;51.044;3.746;2023-04-25T01:55:02;10.00;99.90
13328;DHT22;6733;51.044;3.746;2023-04-25T01:57:28;10.00;99.90
13328;DHT22;6733;51.044;3.746;2023-04-25T01:59:59;9.90;99.90
13328;DHT22;6733;51.044;3.746;2023-04-25T02:02:25;9.90;99.90
13328;DHT22;6733;51.044;3.746;2023-04-25T02:04:52;9.90;99.90
13328;DHT22;6733;51.044;3.746;2023-04-25T02:07:18;9.90;99.90
13328;DHT22;6733;51.044;3.746;2023-04-25T02:09:44;9.90;99.90
13328;DHT22;6733;51.044;3.746;2023-04-25T02:12:10;9.90;99.90
13328;DHT22;6733;51.044;3.746;2023-04-25T02:14:37;9.90;99.90
13328;DHT22;6733;51.044;3.746;2023-04-25T02:17:03;9.80;99.90
13328;DHT22;6733;51.044;3.746;2023-04-25T02:19:29;9.80;99.90
13328;DHT22;6733;51.044;3.746;2023-04-25T02:21:55;9.80;99.90
13328;DHT22;6733;51.044;3.746;2023-04-25T02:24:23;9.80;99.90
13328;DHT22;6733;51.044;3.746;2023-04-25T02:26:49;9.80;99.90
13328;DHT22;6733;51.044;3.746;2023-04-25T02:29:15;9.80;99.90
13328;DHT22;6733;51.044;3.746;2023-04-25T02:31:42;9.80;99.90
13328;DHT22;6733;51.044;3.746;2023-04-25T02:34:08;9.80;99.90
13328;DHT22;6733;51.044;3.746;2023-04-25T02:37:03;9.80;99.90
13328;DHT22;6733;51.044;3.746;2023-04-25T02:39:57;9.70;99.90
13328;DHT22;6733;51.044;3.746;2023-04-25T02:42:52;9.80;99.90
13328;DHT22;6733;51.044;3.746;2023-04-25T02:45:46;9.70;99.90
13328;DHT22;6733;51.044;3.746;2023-04-25T02:48:41;9.60;99.90
13328;DHT22;6733;51.044;3.746;2023-04-25T02:51:36;9.60;99.90
13328;DHT22;6733;51.044;3.746;2023-04-25T02:54:02;9.70;99.90
13328;DHT22;6733;51.044;3.746;2023-04-25T02:56:28;9.60;99.90
13328;DHT22;6733;51.044;3.746;2023-04-25T02:58:55;9.60;99.90
13328;DHT22;6733;51.044;3.746;2023-04-25T03:01:21;9.60;99.90
13328;DHT22;6733;51.044;3.746;2023-04-25T03:03:47;9.60;99.90
13328;DHT22;6733;51.044;3.746;2023-04-25T03:06:14;9.70;99.90
13328;DHT22;6733;51.044;3.746;2023-04-25T03:08:43;9.70;99.90
13328;DHT22;6733;51.044;3.746;2023-04-25T03:11:13;9.60;99.90
13328;DHT22;6733;51.044;3.746;2023-04-25T03:13:39;9.60;99.90
13328;DHT22;6733;51.044;3.746;2023-04-25T03:16:05;9.60;99.90
13328;DHT22;6733;51.044;3.746;2023-04-25T03:18:31;9.50;99.90
13328;DHT22;6733;51.044;3.746;2023-04-25T03:20:58;9.50;99.90
13328;DHT22;6733;51.044;3.746;2023-04-25T03:23:24;9.40;99.90
13328;DHT22;6733;51.044;3.746;2023-04-25T03:25:50;9.40;99.90
13328;DHT22;6733;51.044;3.746;2023-04-25T03:28:17;9.40;99.90
13328;DHT22;6733;51.044;3.746;2023-04-25T03:30:43;9.40;99.90
13328;DHT22;6733;51.044;3.746;2023-04-25T03:33:09;9.30;99.90
13328;DHT22;6733;51.044;3.746;2023-04-25T03:35:35;9.20;99.90
13328;DHT22;6733;51.044;3.746;2023-04-25T03:38:01;9.30;99.90
13328;DHT22;6733;51.044;3.746;2023-04-25T03:40:27;9.20;99.90
13328;DHT22;6733;51.044;3.746;2023-04-25T03:42:54;9.10;99.90
13328;DHT22;6733;51.044;3.746;2023-04-25T03:45:20;9.10;99.90
13328;DHT22;6733;51.044;3.746;2023-04-25T03:47:46;9.10;99.90
13328;DHT22;6733;51.044;3.746;2023-04-25T03:50:12;9.20;99.90
13328;DHT22;6733;51.044;3.746;2023-04-25T03:52:38;9.20;99.90
13328;DHT22;6733;51.044;3.746;2023-04-25T03:55:05;9.10;99.90
13328;DHT22;6733;51.044;3.746;2023-04-25T03:57:31;9.10;99.90
13328;DHT22;6733;51.044;3.746;2023-04-25T03:59:57;9.20;99.90
13328;DHT22;6733;51.044;3.746;2023-04-25T04:02:24;9.20;99.90
13328;DHT22;6733;51.044;3.746;2023-04-25T04:04:50;9.20;99.90
13328;DHT22;6733;51.044;3.746;2023-04-25T04:07:16;9.20;99.90
13328;DHT22;6733;51.044;3.746;2023-04-25T04:09:42;9.20;99.90
13328;DHT22;6733;51.044;3.746;2023-04-25T04:12:09;9.20;99.90
13328;DHT22;6733;51.044;3.746;2023-04-25T04:14:35;9.20;99.90
13328;DHT22;6733;51.044;3.746;2023-04-25T04:17:01;9.20;99.90
13328;DHT22;6733;51.044;3.746;2023-04-25T04:19:27;9.20;99.90
13328;DHT22;6733;51.044;3.746;2023-04-25T04:21:53;9.20;99.90
13328;DHT22;6733;51.044;3.746;2023-04-25T04:24:20;9.20;99.90
13328;DHT22;6733;51.044;3.746;2023-04-25T04:26:46;9.20;99.90
13328;DHT22;6733;51.044;3.746;2023-04-25T04:29:12;9.20;99.90
13328;DHT22;6733;51.044;3.746;2023-04-25T04:31:50;9.20;99.90
13328;DHT22;6733;51.044;3.746;2023-04-25T04:34:17;9.20;99.90
13328;DHT22;6733;51.044;3.746;2023-04-25T04:36:44;9.20;99.90
13328;DHT22;6733;51.044;3.746;2023-04-25T04:39:12;9.10;99.90
13328;DHT22;6733;51.044;3.746;2023-04-25T04:41:38;9.20;99.90
13328;DHT22;6733;51.044;3.746;2023-04-25T04:44:05;9.20;99.90
13328;DHT22;6733;51.044;3.746;2023-04-25T04:46:32;9.20;99.90
13328;DHT22;6733;51.044;3.746;2023-04-25T04:49:05;9.20;99.90
13328;DHT22;6733;51.044;3.746;2023-04-25T04:51:31;9.20;99.90
13328;DHT22;6733;51.044;3.746;2023-04-25T04:53:58;9.10;99.90
13328;DHT22;6733;51.044;3.746;2023-04-25T04:56:31;9.20;99.90
13328;DHT22;6733;51.044;3.746;2023-04-25T04:58:57;9.10;99.90
13328;DHT22;6733;51.044;3.746;2023-04-25T05:01:24;9.00;99.90
13328;DHT22;6733;51.044;3.746;2023-04-25T05:03:50;8.90;99.90
13328;DHT22;6733;51.044;3.746;2023-04-25T05:06:18;8.90;99.90
13328;DHT22;6733;51.044;3.746;2023-04-25T05:08:45;8.90;99.90
13328;DHT22;6733;51.044;3.746;2023-04-25T05:11:11;8.90;99.90
13328;DHT22;6733;51.044;3.746;2023-04-25T05:13:37;8.90;99.90
13328;DHT22;6733;51.044;3.746;2023-04-25T05:16:03;9.00;99.90
13328;DHT22;6733;51.044;3.746;2023-04-25T05:18:30;9.00;99.90
13328;DHT22;6733;51.044;3.746;2023-04-25T05:20:56;9.10;99.90
13328;DHT22;6733;51.044;3.746;2023-04-25T05:23:22;9.10;99.90
13328;DHT22;6733;51.044;3.746;2023-04-25T05:25:48;9.20;99.90
13328;DHT22;6733;51.044;3.746;2023-04-25T05:28:14;9.40;99.90
13328;DHT22;6733;51.044;3.746;2023-04-25T05:30:41;9.40;99.90
13328;DHT22;6733;51.044;3.746;2023-04-25T05:33:07;9.50;99.90
13328;DHT22;6733;51.044;3.746;2023-04-25T05:35:34;9.60;99.90
13328;DHT22;6733;51.044;3.746;2023-04-25T05:38:00;9.60;99.90
13328;DHT22;6733;51.044;3.746;2023-04-25T05:40:26;9.70;99.90
13328;DHT22;6733;51.044;3.746;2023-04-25T05:42:52;9.70;99.90
13328;DHT22;6733;51.044;3.746;2023-04-25T05:45:19;9.70;99.90
13328;DHT22;6733;51.044;3.746;2023-04-25T05:47:45;9.90;99.90
13328;DHT22;6733;51.044;3.746;2023-04-25T05:50:11;9.90;99.90
13328;DHT22;6733;51.044;3.746;2023-04-25T05:52:37;10.00;99.90
13328;DHT22;6733;51.044;3.746;2023-04-25T05:55:05;10.00;99.90
13328;DHT22;6733;51.044;3.746;2023-04-25T05:57:31;10.00;99.90
13328;DHT22;6733;51.044;3.746;2023-04-25T05:59:57;10.10;99.90
13328;DHT22;6733;51.044;3.746;2023-04-25T06:02:24;10.10;99.90
13328;DHT22;6733;51.044;3.746;2023-04-25T06:04:50;10.10;99.90
13328;DHT22;6733;51.044;3.746;2023-04-25T06:07:18;10.20;99.90
13328;DHT22;6733;51.044;3.746;2023-04-25T06:09:44;10.20;99.90
13328;DHT22;6733;51.044;3.746;2023-04-25T06:12:11;10.30;99.90
13328;DHT22;6733;51.044;3.746;2023-04-25T06:14:38;10.30;99.90
13328;DHT22;6733;51.044;3.746;2023-04-25T06:17:04;10.40;99.90
13328;DHT22;6733;51.044;3.746;2023-04-25T06:19:35;10.50;99.90
13328;DHT22;6733;51.044;3.746;2023-04-25T06:22:02;10.50;99.90
13328;DHT22;6733;51.044;3.746;2023-04-25T06:24:28;10.60;99.90
13328;DHT22;6733;51.044;3.746;2023-04-25T06:26:54;10.60;99.90
13328;DHT22;6733;51.044;3.746;2023-04-25T06:29:21;10.50;99.90
13328;DHT22;6733;51.044;3.746;2023-04-25T06:31:47;10.60;99.90
13328;DHT22;6733;51.044;3.746;2023-04-25T06:34:13;10.80;99.90
13328;DHT22;6733;51.044;3.746;2023-04-25T06:36:39;10.80;99.90
13328;DHT22;6733;51.044;3.746;2023-04-25T06:39:07;10.70;99.90
13328;DHT22;6733;51.044;3.746;2023-04-25T06:41:35;10.70;99.90
13328;DHT22;6733;51.044;3.746;2023-04-25T06:44:01;10.80;99.90
13328;DHT22;6733;51.044;3.746;2023-04-25T06:46:27;10.70;99.90
13328;DHT22;6733;51.044;3.746;2023-04-25T06:48:53;10.70;99.90
13328;DHT22;6733;51.044;3.746;2023-04-25T06:51:20;10.70;99.90
13328;DHT22;6733;51.044;3.746;2023-04-25T06:53:46;10.80;99.90
13328;DHT22;6733;51.044;3.746;2023-04-25T06:56:12;11.00;99.90
13328;DHT22;6733;51.044;3.746;2023-04-25T06:58:38;10.90;99.90
13328;DHT22;6733;51.044;3.746;2023-04-25T07:01:04;10.80;99.90
13328;DHT22;6733;51.044;3.746;2023-04-25T07:03:31;10.60;99.90
13328;DHT22;6733;51.044;3.746;2023-04-25T07:05:57;9.90;99.90
13328;DHT22;6733;51.044;3.746;2023-04-25T07:08:23;9.60;99.90
13328;DHT22;6733;51.044;3.746;2023-04-25T07:10:49;9.30;99.90
13328;DHT22;6733;51.044;3.746;2023-04-25T07:13:16;9.20;99.90
13328;DHT22;6733;51.044;3.746;2023-04-25T07:15:43;9.20;99.90
13328;DHT22;6733;51.044;3.746;2023-04-25T07:18:09;9.20;99.90
13328;DHT22;6733;51.044;3.746;2023-04-25T07:20:36;9.30;99.90
13328;DHT22;6733;51.044;3.746;2023-04-25T07:23:02;9.50;99.90
13328;DHT22;6733;51.044;3.746;2023-04-25T07:25:28;9.80;99.90
13328;DHT22;6733;51.044;3.746;2023-04-25T07:27:56;9.90;99.90
13328;DHT22;6733;51.044;3.746;2023-04-25T07:30:22;9.70;99.90
13328;DHT22;6733;51.044;3.746;2023-04-25T07:32:50;9.30;99.90
13328;DHT22;6733;51.044;3.746;2023-04-25T07:35:17;9.30;99.90
13328;DHT22;6733;51.044;3.746;2023-04-25T07:37:43;9.20;99.90
13328;DHT22;6733;51.044;3.746;2023-04-25T07:40:09;9.10;99.90
13328;DHT22;6733;51.044;3.746;2023-04-25T07:42:36;9.30;99.90
13328;DHT22;6733;51.044;3.746;2023-04-25T07:45:02;9.70;99.90
13328;DHT22;6733;51.044;3.746;2023-04-25T07:47:29;9.90;99.90
13328;DHT22;6733;51.044;3.746;2023-04-25T07:49:55;9.60;99.90
13328;DHT22;6733;51.044;3.746;2023-04-25T07:52:23;9.90;99.90
13328;DHT22;6733;51.044;3.746;2023-04-25T07:54:49;10.00;99.90
13328;DHT22;6733;51.044;3.746;2023-04-25T07:57:16;10.00;99.90
13328;DHT22;6733;51.044;3.746;2023-04-25T07:59:42;10.20;99.90
13328;DHT22;6733;51.044;3.746;2023-04-25T08:02:09;10.70;99.90
13328;DHT22;6733;51.044;3.746;2023-04-25T08:04:35;10.80;99.90
13328;DHT22;6733;51.044;3.746;2023-04-25T08:07:02;10.90;99.90
13328;DHT22;6733;51.044;3.746;2023-04-25T08:09:28;10.70;99.90
13328;DHT22;6733;51.044;3.746;2023-04-25T08:11:55;10.60;99.90
13328;DHT22;6733;51.044;3.746;2023-04-25T08:14:21;10.50;99.90
13328;DHT22;6733;51.044;3.746;2023-04-25T08:16:47;10.50;99.90
13328;DHT22;6733;51.044;3.746;2023-04-25T08:19:14;10.30;99.90
13328;DHT22;6733;51.044;3.746;2023-04-25T08:21:40;10.00;99.90
13328;DHT22;6733;51.044;3.746;2023-04-25T08:24:06;10.10;99.90
13328;DHT22;6733;51.044;3.746;2023-04-25T08:26:32;10.10;99.90
13328;DHT22;6733;51.044;3.746;2023-04-25T08:29:00;9.80;99.90
13328;DHT22;6733;51.044;3.746;2023-04-25T08:31:27;10.30;99.90
13328;DHT22;6733;51.044;3.746;2023-04-25T08:33:53;10.60;99.90
13328;DHT22;6733;51.044;3.746;2023-04-25T08:36:19;10.90;99.90
13328;DHT22;6733;51.044;3.746;2023-04-25T08:38:45;11.60;99.90
13328;DHT22;6733;51.044;3.746;2023-04-25T08:41:12;11.70;99.90
13328;DHT22;6733;51.044;3.746;2023-04-25T08:43:44;11.90;99.90
13328;DHT22;6733;51.044;3.746;2023-04-25T08:46:11;12.10;99.90
13328;DHT22;6733;51.044;3.746;2023-04-25T08:48:40;12.40;99.90
13328;DHT22;6733;51.044;3.746;2023-04-25T08:51:09;12.20;99.90
13328;DHT22;6733;51.044;3.746;2023-04-25T08:53:36;11.90;99.90
13328;DHT22;6733;51.044;3.746;2023-04-25T08:56:02;11.60;99.90
13328;DHT22;6733;51.044;3.746;2023-04-25T08:58:29;12.10;99.90
13328;DHT22;6733;51.044;3.746;2023-04-25T09:00:56;12.20;99.90
13328;DHT22;6733;51.044;3.746;2023-04-25T09:03:22;12.40;99.90
13328;DHT22;6733;51.044;3.746;2023-04-25T09:05:49;12.80;99.90
13328;DHT22;6733;51.044;3.746;2023-04-25T09:08:16;12.90;99.90
13328;DHT22;6733;51.044;3.746;2023-04-25T09:10:42;12.10;99.90
13328;DHT22;6733;51.044;3.746;2023-04-25T09:13:11;11.60;99.90
13328;DHT22;6733;51.044;3.746;2023-04-25T09:15:52;11.10;99.90
13328;DHT22;6733;51.044;3.746;2023-04-25T09:18:31;10.70;99.90
13328;DHT22;6733;51.044;3.746;2023-04-25T09:21:09;10.30;99.90
13328;DHT22;6733;51.044;3.746;2023-04-25T09:23:46;10.00;99.90
13328;DHT22;6733;51.044;3.746;2023-04-25T09:26:17;9.80;99.90
13328;DHT22;6733;51.044;3.746;2023-04-25T09:28:44;9.50;99.90
13328;DHT22;6733;51.044;3.746;2023-04-25T09:31:11;9.50;99.90
13328;DHT22;6733;51.044;3.746;2023-04-25T09:33:38;9.30;99.90
13328;DHT22;6733;51.044;3.746;2023-04-25T09:36:09;9.20;99.90
13328;DHT22;6733;51.044;3.746;2023-04-25T09:38:42;8.90;99.90
13328;DHT22;6733;51.044;3.746;2023-04-25T09:41:09;9.10;99.90
13328;DHT22;6733;51.044;3.746;2023-04-25T09:43:36;9.20;99.90
13328;DHT22;6733;51.044;3.746;2023-04-25T09:46:08;9.40;99.90
13328;DHT22;6733;51.044;3.746;2023-04-25T09:48:35;9.80;99.90
13328;DHT22;6733;51.044;3.746;2023-04-25T09:51:12;9.80;99.90
13328;DHT22;6733;51.044;3.746;2023-04-25T09:53:46;9.90;99.90
13328;DHT22;6733;51.044;3.746;2023-04-25T09:56:13;10.20;99.90
13328;DHT22;6733;51.044;3.746;2023-04-25T09:58:40;10.60;99.90
13328;DHT22;6733;51.044;3.746;2023-04-25T10:01:08;10.40;99.90
13328;DHT22;6733;51.044;3.746;2023-04-25T10:03:36;10.90;99.90
13328;DHT22;6733;51.044;3.746;2023-04-25T10:06:08;11.20;99.90
13328;DHT22;6733;51.044;3.746;2023-04-25T10:08:36;11.30;99.90
13328;DHT22;6733;51.044;3.746;2023-04-25T10:11:04;11.30;99.90
13328;DHT22;6733;51.044;3.746;2023-04-25T10:13:31;11.30;99.90
13328;DHT22;6733;51.044;3.746;2023-04-25T10:16:00;11.30;99.90
13328;DHT22;6733;51.044;3.746;2023-04-25T10:18:27;11.00;99.90
13328;DHT22;6733;51.044;3.746;2023-04-25T10:21:05;11.00;99.90
13328;DHT22;6733;51.044;3.746;2023-04-25T10:23:32;11.60;99.90
13328;DHT22;6733;51.044;3.746;2023-04-25T10:26:00;11.60;99.90
13328;DHT22;6733;51.044;3.746;2023-04-25T10:28:27;11.90;99.90
13328;DHT22;6733;51.044;3.746;2023-04-25T10:31:04;11.40;99.90
13328;DHT22;6733;51.044;3.746;2023-04-25T10:33:39;10.90;99.90
13328;DHT22;6733;51.044;3.746;2023-04-25T10:36:10;10.50;99.90
13328;DHT22;6733;51.044;3.746;2023-04-25T10:38:37;10.60;99.90
13328;DHT22;6733;51.044;3.746;2023-04-25T10:41:08;10.30;99.90
13328;DHT22;6733;51.044;3.746;2023-04-25T10:43:39;10.50;99.90
13328;DHT22;6733;51.044;3.746;2023-04-25T10:46:25;10.60;99.90
13328;DHT22;6733;51.044;3.746;2023-04-25T10:51:24;11.10;99.90
13328;DHT22;6733;51.044;3.746;2023-04-25T10:54:04;11.70;99.90
13328;DHT22;6733;51.044;3.746;2023-04-25T10:59:19;11.70;99.90
13328;DHT22;6733;51.044;3.746;2023-04-25T11:01:51;11.10;99.90
13328;DHT22;6733;51.044;3.746;2023-04-25T11:07:10;10.80;99.90
13328;DHT22;6733;51.044;3.746;2023-04-25T11:09:39;11.20;99.90
13328;DHT22;6733;51.044;3.746;2023-04-25T11:12:08;11.40;99.90
13328;DHT22;6733;51.044;3.746;2023-04-25T11:14:35;11.40;99.90
13328;DHT22;6733;51.044;3.746;2023-04-25T11:17:01;12.10;99.90
13328;DHT22;6733;51.044;3.746;2023-04-25T11:19:29;12.10;99.90
13328;DHT22;6733;51.044;3.746;2023-04-25T11:21:56;12.00;99.90
13328;DHT22;6733;51.044;3.746;2023-04-25T11:24:30;11.70;99.90
13328;DHT22;6733;51.044;3.746;2023-04-25T11:26:58;11.40;99.90
13328;DHT22;6733;51.044;3.746;2023-04-25T11:29:32;11.50;99.90
13328;DHT22;6733;51.044;3.746;2023-04-25T11:31:59;11.90;99.90
13328;DHT22;6733;51.044;3.746;2023-04-25T11:34:28;11.80;99.90
13328;DHT22;6733;51.044;3.746;2023-04-25T11:36:56;11.50;99.90
13328;DHT22;6733;51.044;3.746;2023-04-25T11:39:26;11.70;99.90
13328;DHT22;6733;51.044;3.746;2023-04-25T11:41:53;11.90;99.90
13328;DHT22;6733;51.044;3.746;2023-04-25T11:44:20;12.20;99.90
13328;DHT22;6733;51.044;3.746;2023-04-25T11:46:47;12.30;99.90
13328;DHT22;6733;51.044;3.746;2023-04-25T11:49:14;12.30;99.90
13328;DHT22;6733;51.044;3.746;2023-04-25T11:51:47;12.40;99.90
13328;DHT22;6733;51.044;3.746;2023-04-25T11:54:14;12.30;99.90
13328;DHT22;6733;51.044;3.746;2023-04-25T11:56:45;12.20;99.90
13328;DHT22;6733;51.044;3.746;2023-04-25T11:59:12;12.40;99.90
13328;DHT22;6733;51.044;3.746;2023-04-25T12:01:40;12.80;99.90
13328;DHT22;6733;51.044;3.746;2023-04-25T12:04:15;12.80;99.90
13328;DHT22;6733;51.044;3.746;2023-04-25T12:06:43;13.00;99.90
13328;DHT22;6733;51.044;3.746;2023-04-25T12:09:11;12.80;99.90
13328;DHT22;6733;51.044;3.746;2023-04-25T12:11:53;12.60;99.90
13328;DHT22;6733;51.044;3.746;2023-04-25T12:16:55;13.10;99.90
13328;DHT22;6733;51.044;3.746;2023-04-25T12:19:23;12.60;99.90
13328;DHT22;6733;51.044;3.746;2023-04-25T12:21:50;12.90;99.90
13328;DHT22;6733;51.044;3.746;2023-04-25T12:24:18;13.80;99.90
13328;DHT22;6733;51.044;3.746;2023-04-25T12:29:23;13.60;99.90
13328;DHT22;6733;51.044;3.746;2023-04-25T12:31:51;13.70;99.90
13328;DHT22;6733;51.044;3.746;2023-04-25T12:34:18;13.20;99.90
13328;DHT22;6733;51.044;3.746;2023-04-25T12:36:45;12.80;99.90
13328;DHT22;6733;51.044;3.746;2023-04-25T12:39:18;12.40;99.90
13328;DHT22;6733;51.044;3.746;2023-04-25T12:41:46;12.20;99.90
13328;DHT22;6733;51.044;3.746;2023-04-25T12:44:12;12.10;99.90
13328;DHT22;6733;51.044;3.746;2023-04-25T12:46:40;12.40;99.90
13328;DHT22;6733;51.044;3.746;2023-04-25T12:49:09;12.40;99.90
13328;DHT22;6733;51.044;3.746;2023-04-25T12:51:36;12.40;99.90
13328;DHT22;6733;51.044;3.746;2023-04-25T12:54:03;12.10;99.90
13328;DHT22;6733;51.044;3.746;2023-04-25T12:56:30;12.20;99.90
13328;DHT22;6733;51.044;3.746;2023-04-25T12:58:58;11.80;99.90
13328;DHT22;6733;51.044;3.746;2023-04-25T13:01:25;12.00;99.90
13328;DHT22;6733;51.044;3.746;2023-04-25T13:03:52;11.90;99.90
13328;DHT22;6733;51.044;3.746;2023-04-25T13:06:20;11.90;99.90
13328;DHT22;6733;51.044;3.746;2023-04-25T13:08:46;11.50;99.90
13328;DHT22;6733;51.044;3.746;2023-04-25T13:11:12;11.60;99.90
13328;DHT22;6733;51.044;3.746;2023-04-25T13:13:41;11.80;99.90
13328;DHT22;6733;51.044;3.746;2023-04-25T13:16:07;11.60;99.90
13328;DHT22;6733;51.044;3.746;2023-04-25T13:18:34;11.60;99.90
13328;DHT22;6733;51.044;3.746;2023-04-25T13:21:01;11.60;99.90
13328;DHT22;6733;51.044;3.746;2023-04-25T13:23:28;11.60;99.90
13328;DHT22;6733;51.044;3.746;2023-04-25T13:25:55;11.90;99.90
13328;DHT22;6733;51.044;3.746;2023-04-25T13:28:26;12.10;99.90
13328;DHT22;6733;51.044;3.746;2023-04-25T13:30:53;12.70;99.90
13328;DHT22;6733;51.044;3.746;2023-04-25T13:33:20;12.50;99.90
13328;DHT22;6733;51.044;3.746;2023-04-25T13:35:48;12.40;99.90
13328;DHT22;6733;51.044;3.746;2023-04-25T13:38:24;11.30;99.90
13328;DHT22;6733;51.044;3.746;2023-04-25T13:40:51;11.50;99.90
13328;DHT22;6733;51.044;3.746;2023-04-25T13:43:20;11.50;99.90
13328;DHT22;6733;51.044;3.746;2023-04-25T13:45:48;11.50;99.90
13328;DHT22;6733;51.044;3.746;2023-04-25T13:48:15;11.60;99.90
13328;DHT22;6733;51.044;3.746;2023-04-25T13:50:41;11.80;99.90
13328;DHT22;6733;51.044;3.746;2023-04-25T13:53:07;12.10;99.90
13328;DHT22;6733;51.044;3.746;2023-04-25T13:55:34;11.80;99.90
13328;DHT22;6733;51.044;3.746;2023-04-25T13:58:03;12.30;99.90
13328;DHT22;6733;51.044;3.746;2023-04-25T14:00:38;12.10;99.90
13328;DHT22;6733;51.044;3.746;2023-04-25T14:03:05;12.20;99.90
13328;DHT22;6733;51.044;3.746;2023-04-25T14:05:34;12.20;99.90
13328;DHT22;6733;51.044;3.746;2023-04-25T14:08:08;12.20;99.90
13328;DHT22;6733;51.044;3.746;2023-04-25T14:10:35;12.80;99.90
13328;DHT22;6733;51.044;3.746;2023-04-25T14:13:02;12.90;99.90
13328;DHT22;6733;51.044;3.746;2023-04-25T14:15:32;13.40;99.90
13328;DHT22;6733;51.044;3.746;2023-04-25T14:17:58;13.30;99.90
13328;DHT22;6733;51.044;3.746;2023-04-25T14:20:25;12.90;99.90
13328;DHT22;6733;51.044;3.746;2023-04-25T14:22:51;12.50;99.90
13328;DHT22;6733;51.044;3.746;2023-04-25T14:25:17;12.70;99.90
13328;DHT22;6733;51.044;3.746;2023-04-25T14:27:44;12.60;99.90
13328;DHT22;6733;51.044;3.746;2023-04-25T14:30:13;12.30;99.90
13328;DHT22;6733;51.044;3.746;2023-04-25T14:32:39;12.20;99.90
13328;DHT22;6733;51.044;3.746;2023-04-25T14:35:07;12.70;99.90
13328;DHT22;6733;51.044;3.746;2023-04-25T14:37:33;12.30;99.90
13328;DHT22;6733;51.044;3.746;2023-04-25T14:39:59;12.20;99.90
13328;DHT22;6733;51.044;3.746;2023-04-25T14:42:26;11.90;99.90
13328;DHT22;6733;51.044;3.746;2023-04-25T14:44:52;12.00;99.90
13328;DHT22;6733;51.044;3.746;2023-04-25T14:47:18;12.40;99.90
13328;DHT22;6733;51.044;3.746;2023-04-25T14:49:44;12.80;99.90
13328;DHT22;6733;51.044;3.746;2023-04-25T14:52:16;13.40;99.90
13328;DHT22;6733;51.044;3.746;2023-04-25T14:54:43;13.80;98.80
13328;DHT22;6733;51.044;3.746;2023-04-25T14:57:09;13.90;97.70
13328;DHT22;6733;51.044;3.746;2023-04-25T14:59:35;13.50;97.80
13328;DHT22;6733;51.044;3.746;2023-04-25T15:02:01;12.70;99.50
13328;DHT22;6733;51.044;3.746;2023-04-25T15:04:28;12.60;99.90
13328;DHT22;6733;51.044;3.746;2023-04-25T15:06:54;12.40;99.90
13328;DHT22;6733;51.044;3.746;2023-04-25T15:09:20;11.90;99.90
13328;DHT22;6733;51.044;3.746;2023-04-25T15:11:46;12.00;99.90
13328;DHT22;6733;51.044;3.746;2023-04-25T15:14:13;11.90;99.90
13328;DHT22;6733;51.044;3.746;2023-04-25T15:16:39;12.20;99.90
13328;DHT22;6733;51.044;3.746;2023-04-25T15:19:05;12.40;99.90
13328;DHT22;6733;51.044;3.746;2023-04-25T15:21:31;12.70;99.90
13328;DHT22;6733;51.044;3.746;2023-04-25T15:23:57;13.10;99.10
13328;DHT22;6733;51.044;3.746;2023-04-25T15:26:24;13.30;99.50
13328;DHT22;6733;51.044;3.746;2023-04-25T15:28:50;13.50;99.20
13328;DHT22;6733;51.044;3.746;2023-04-25T15:31:18;13.80;98.90
13328;DHT22;6733;51.044;3.746;2023-04-25T15:33:44;14.50;98.30
13328;DHT22;6733;51.044;3.746;2023-04-25T15:36:11;15.00;98.00
13328;DHT22;6733;51.044;3.746;2023-04-25T15:38:37;14.40;97.30
13328;DHT22;6733;51.044;3.746;2023-04-25T15:41:04;14.80;97.70
13328;DHT22;6733;51.044;3.746;2023-04-25T15:43:30;14.50;96.90
13328;DHT22;6733;51.044;3.746;2023-04-25T15:45:57;14.10;98.10
13328;DHT22;6733;51.044;3.746;2023-04-25T15:48:23;13.40;99.10
13328;DHT22;6733;51.044;3.746;2023-04-25T15:50:49;13.40;99.80
13328;DHT22;6733;51.044;3.746;2023-04-25T15:53:15;14.00;99.90
13328;DHT22;6733;51.044;3.746;2023-04-25T15:55:41;13.30;99.90
13328;DHT22;6733;51.044;3.746;2023-04-25T15:58:09;12.30;99.90
13328;DHT22;6733;51.044;3.746;2023-04-25T16:00:36;11.90;99.90
13328;DHT22;6733;51.044;3.746;2023-04-25T16:03:02;11.80;99.90
13328;DHT22;6733;51.044;3.746;2023-04-25T16:05:30;11.70;99.90
13328;DHT22;6733;51.044;3.746;2023-04-25T16:07:57;11.50;99.90
13328;DHT22;6733;51.044;3.746;2023-04-25T16:10:23;13.00;99.90